sensor_id;sensor_type;location;lat;lon;timestamp;P1;durP1;ratioP1;P2;durP2;ratioP2
21114;SDS011;10715;48.546;9.896;2022-08-11T00:00:43;6.80;;;1.53;;
21114;SDS011;10715;48.546;9.896;2022-08-11T00:03:11;1.97;;;1.77;;
21114;SDS011;10715;48.546;9.896;2022-08-11T00:05:44;3.37;;;1.40;;
21114;SDS011;10715;48.546;9.896;2022-08-11T00:08:25;1.60;;;1.50;;
21114;SDS011;10715;48.546;9.896;2022-08-11T00:10:53;1.70;;;1.60;;
21114;SDS011;10715;48.546;9.896;2022-08-11T00:13:35;1.63;;;1.43;;
21114;SDS011;10715;48.546;9.896;2022-08-11T00:16:09;1.20;;;1.10;;
21114;SDS011;10715;48.546;9.896;2022-08-11T00:18:41;3.13;;;1.30;;
21114;SDS011;10715;48.546;9.896;2022-08-11T00:21:09;3.93;;;1.30;;
21114;SDS011;10715;48.546;9.896;2022-08-11T00:23:46;1.57;;;1.47;;
21114;SDS011;10715;48.546;9.896;2022-08-11T00:26:26;2.13;;;1.80;;
21114;SDS011;10715;48.546;9.896;2022-08-11T00:28:53;3.00;;;1.10;;
21114;SDS011;10715;48.546;9.896;2022-08-11T00:31:22;1.97;;;1.53;;
21114;SDS011;10715;48.546;9.896;2022-08-11T00:33:51;1.77;;;1.67;;
21114;SDS011;10715;48.546;9.896;2022-08-11T00:36:18;1.43;;;1.33;;
21114;SDS011;10715;48.546;9.896;2022-08-11T00:38:48;1.30;;;1.20;;
21114;SDS011;10715;48.546;9.896;2022-08-11T00:47:09;3.33;;;1.27;;
21114;SDS011;10715;48.546;9.896;2022-08-11T00:49:51;5.37;;;1.60;;
21114;SDS011;10715;48.546;9.896;2022-08-11T01:12:26;2.07;;;1.73;;
21114;SDS011;10715;48.546;9.896;2022-08-11T01:15:19;2.53;;;2.40;;
21114;SDS011;10715;48.546;9.896;2022-08-11T01:46:32;3.33;;;2.90;;
21114;SDS011;10715;48.546;9.896;2022-08-11T02:00:16;3.10;;;1.73;;
21114;SDS011;10715;48.546;9.896;2022-08-11T02:08:07;2.43;;;2.23;;
21114;SDS011;10715;48.546;9.896;2022-08-11T02:10:57;2.90;;;2.67;;
21114;SDS011;10715;48.546;9.896;2022-08-11T02:13:54;2.33;;;2.23;;
21114;SDS011;10715;48.546;9.896;2022-08-11T02:22:07;2.70;;;2.50;;
21114;SDS011;10715;48.546;9.896;2022-08-11T02:25:19;2.50;;;2.30;;
21114;SDS011;10715;48.546;9.896;2022-08-11T02:27:47;4.27;;;4.07;;
21114;SDS011;10715;48.546;9.896;2022-08-11T02:30:23;2.30;;;2.10;;
21114;SDS011;10715;48.546;9.896;2022-08-11T02:35:54;3.33;;;3.03;;
21114;SDS011;10715;48.546;9.896;2022-08-11T02:38:36;2.77;;;2.53;;
21114;SDS011;10715;48.546;9.896;2022-08-11T02:47:08;2.87;;;2.27;;
21114;SDS011;10715;48.546;9.896;2022-08-11T02:52:40;2.73;;;2.53;;
21114;SDS011;10715;48.546;9.896;2022-08-11T02:55:31;2.80;;;2.70;;
21114;SDS011;10715;48.546;9.896;2022-08-11T02:58:12;3.30;;;3.03;;
21114;SDS011;10715;48.546;9.896;2022-08-11T03:00:54;3.20;;;2.97;;
21114;SDS011;10715;48.546;9.896;2022-08-11T03:03:33;2.73;;;2.53;;
21114;SDS011;10715;48.546;9.896;2022-08-11T03:06:51;2.67;;;2.27;;
21114;SDS011;10715;48.546;9.896;2022-08-11T03:11:59;2.70;;;2.33;;
21114;SDS011;10715;48.546;9.896;2022-08-11T03:14:55;6.03;;;3.67;;
21114;SDS011;10715;48.546;9.896;2022-08-11T03:20:44;3.07;;;2.80;;
21114;SDS011;10715;48.546;9.896;2022-08-11T03:23:36;2.80;;;2.67;;
21114;SDS011;10715;48.546;9.896;2022-08-11T03:29:07;3.37;;;3.17;;
21114;SDS011;10715;48.546;9.896;2022-08-11T03:34:24;3.50;;;3.30;;
21114;SDS011;10715;48.546;9.896;2022-08-11T03:47:57;3.33;;;3.13;;
21114;SDS011;10715;48.546;9.896;2022-08-11T04:00:00;4.23;;;3.53;;
21114;SDS011;10715;48.546;9.896;2022-08-11T04:08:27;3.53;;;3.33;;
21114;SDS011;10715;48.546;9.896;2022-08-11T04:45:45;4.07;;;3.87;;
21114;SDS011;10715;48.546;9.896;2022-08-11T04:51:29;4.10;;;3.70;;
21114;SDS011;10715;48.546;9.896;2022-08-11T04:58:03;3.53;;;3.33;;
21114;SDS011;10715;48.546;9.896;2022-08-11T05:15:11;3.37;;;3.07;;
21114;SDS011;10715;48.546;9.896;2022-08-11T05:18:06;4.27;;;3.90;;
21114;SDS011;10715;48.546;9.896;2022-08-11T05:20:57;3.13;;;2.67;;
21114;SDS011;10715;48.546;9.896;2022-08-11T05:23:51;4.27;;;3.87;;
21114;SDS011;10715;48.546;9.896;2022-08-11T05:26:50;4.47;;;3.70;;
21114;SDS011;10715;48.546;9.896;2022-08-11T05:29:46;4.27;;;2.87;;
21114;SDS011;10715;48.546;9.896;2022-08-11T05:32:41;2.13;;;2.03;;
21114;SDS011;10715;48.546;9.896;2022-08-11T05:35:40;1.97;;;1.87;;
21114;SDS011;10715;48.546;9.896;2022-08-11T05:38:11;3.13;;;2.07;;
21114;SDS011;10715;48.546;9.896;2022-08-11T05:40:58;2.77;;;1.53;;
21114;SDS011;10715;48.546;9.896;2022-08-11T05:43:44;3.27;;;1.93;;
21114;SDS011;10715;48.546;9.896;2022-08-11T05:46:37;3.00;;;1.50;;
21114;SDS011;10715;48.546;9.896;2022-08-11T05:49:27;4.30;;;2.30;;
21114;SDS011;10715;48.546;9.896;2022-08-11T05:52:20;1.50;;;1.10;;
21114;SDS011;10715;48.546;9.896;2022-08-11T05:55:06;2.90;;;1.73;;
21114;SDS011;10715;48.546;9.896;2022-08-11T05:57:56;2.60;;;2.40;;
21114;SDS011;10715;48.546;9.896;2022-08-11T06:00:27;1.80;;;1.70;;
21114;SDS011;10715;48.546;9.896;2022-08-11T06:02:55;2.20;;;2.00;;
21114;SDS011;10715;48.546;9.896;2022-08-11T06:05:34;2.07;;;1.63;;
21114;SDS011;10715;48.546;9.896;2022-08-11T06:08:02;2.97;;;2.77;;
21114;SDS011;10715;48.546;9.896;2022-08-11T06:10:31;1.70;;;1.60;;
21114;SDS011;10715;48.546;9.896;2022-08-11T06:12:59;5.80;;;1.57;;
21114;SDS011;10715;48.546;9.896;2022-08-11T06:15:27;2.07;;;1.87;;
21114;SDS011;10715;48.546;9.896;2022-08-11T06:17:54;3.20;;;2.33;;
21114;SDS011;10715;48.546;9.896;2022-08-11T06:20:24;5.53;;;2.10;;
21114;SDS011;10715;48.546;9.896;2022-08-11T06:22:55;2.73;;;2.30;;
21114;SDS011;10715;48.546;9.896;2022-08-11T06:25:34;6.07;;;2.57;;
21114;SDS011;10715;48.546;9.896;2022-08-11T06:28:05;3.23;;;1.63;;
21114;SDS011;10715;48.546;9.896;2022-08-11T06:30:35;2.23;;;2.03;;
21114;SDS011;10715;48.546;9.896;2022-08-11T06:33:20;1.50;;;1.40;;
21114;SDS011;10715;48.546;9.896;2022-08-11T06:41:06;2.80;;;2.60;;
21114;SDS011;10715;48.546;9.896;2022-08-11T06:46:32;4.23;;;2.10;;
21114;SDS011;10715;48.546;9.896;2022-08-11T06:49:06;2.77;;;2.67;;
21114;SDS011;10715;48.546;9.896;2022-08-11T06:51:51;4.40;;;2.10;;
21114;SDS011;10715;48.546;9.896;2022-08-11T06:54:19;2.67;;;2.47;;
21114;SDS011;10715;48.546;9.896;2022-08-11T06:56:45;2.60;;;2.40;;
21114;SDS011;10715;48.546;9.896;2022-08-11T06:59:44;3.23;;;2.17;;
21114;SDS011;10715;48.546;9.896;2022-08-11T07:02:30;3.73;;;2.60;;
21114;SDS011;10715;48.546;9.896;2022-08-11T07:14:10;2.83;;;2.00;;
21114;SDS011;10715;48.546;9.896;2022-08-11T07:16:57;2.17;;;2.07;;
21114;SDS011;10715;48.546;9.896;2022-08-11T07:19:25;3.83;;;1.90;;
21114;SDS011;10715;48.546;9.896;2022-08-11T07:22:12;6.87;;;1.47;;
21114;SDS011;10715;48.546;9.896;2022-08-11T07:25:02;3.20;;;2.10;;
21114;SDS011;10715;48.546;9.896;2022-08-11T07:27:55;2.50;;;2.00;;
21114;SDS011;10715;48.546;9.896;2022-08-11T07:30:43;2.07;;;1.50;;
21114;SDS011;10715;48.546;9.896;2022-08-11T07:33:11;2.80;;;1.70;;
21114;SDS011;10715;48.546;9.896;2022-08-11T07:35:44;3.07;;;1.83;;
21114;SDS011;10715;48.546;9.896;2022-08-11T07:38:24;5.00;;;1.43;;
21114;SDS011;10715;48.546;9.896;2022-08-11T07:41:14;4.80;;;1.30;;
21114;SDS011;10715;48.546;9.896;2022-08-11T07:43:41;2.40;;;1.63;;
21114;SDS011;10715;48.546;9.896;2022-08-11T07:46:14;2.00;;;1.90;;
21114;SDS011;10715;48.546;9.896;2022-08-11T07:49:00;1.40;;;1.30;;
21114;SDS011;10715;48.546;9.896;2022-08-11T07:51:47;5.90;;;2.00;;
21114;SDS011;10715;48.546;9.896;2022-08-11T07:54:32;2.43;;;2.20;;
21114;SDS011;10715;48.546;9.896;2022-08-11T07:56:59;2.23;;;1.57;;
21114;SDS011;10715;48.546;9.896;2022-08-11T07:59:45;4.07;;;1.20;;
21114;SDS011;10715;48.546;9.896;2022-08-11T08:02:30;4.60;;;1.40;;
21114;SDS011;10715;48.546;9.896;2022-08-11T08:05:15;2.87;;;1.97;;
21114;SDS011;10715;48.546;9.896;2022-08-11T08:08:01;1.43;;;1.30;;
21114;SDS011;10715;48.546;9.896;2022-08-11T08:10:45;6.10;;;1.57;;
21114;SDS011;10715;48.546;9.896;2022-08-11T08:13:31;2.03;;;1.30;;
21114;SDS011;10715;48.546;9.896;2022-08-11T08:16:17;3.67;;;1.80;;
21114;SDS011;10715;48.546;9.896;2022-08-11T08:19:03;1.33;;;1.23;;
21114;SDS011;10715;48.546;9.896;2022-08-11T08:21:29;2.13;;;1.10;;
21114;SDS011;10715;48.546;9.896;2022-08-11T08:23:56;3.43;;;1.50;;
21114;SDS011;10715;48.546;9.896;2022-08-11T08:26:22;3.50;;;1.07;;
21114;SDS011;10715;48.546;9.896;2022-08-11T08:29:08;1.60;;;1.30;;
21114;SDS011;10715;48.546;9.896;2022-08-11T08:31:53;1.60;;;1.30;;
21114;SDS011;10715;48.546;9.896;2022-08-11T08:34:20;3.20;;;1.30;;
21114;SDS011;10715;48.546;9.896;2022-08-11T08:36:49;1.70;;;1.60;;
21114;SDS011;10715;48.546;9.896;2022-08-11T08:39:21;4.30;;;1.30;;
21114;SDS011;10715;48.546;9.896;2022-08-11T08:41:48;3.33;;;1.60;;
21114;SDS011;10715;48.546;9.896;2022-08-11T08:44:16;1.67;;;1.50;;
21114;SDS011;10715;48.546;9.896;2022-08-11T08:46:45;4.10;;;1.57;;
21114;SDS011;10715;48.546;9.896;2022-08-11T08:49:15;5.83;;;1.50;;
21114;SDS011;10715;48.546;9.896;2022-08-11T08:51:44;1.40;;;0.90;;
21114;SDS011;10715;48.546;9.896;2022-08-11T08:54:16;1.53;;;1.17;;
21114;SDS011;10715;48.546;9.896;2022-08-11T08:56:45;1.30;;;1.20;;
21114;SDS011;10715;48.546;9.896;2022-08-11T08:59:16;1.60;;;1.03;;
21114;SDS011;10715;48.546;9.896;2022-08-11T09:01:59;2.17;;;1.23;;
21114;SDS011;10715;48.546;9.896;2022-08-11T09:04:27;1.20;;;1.10;;
21114;SDS011;10715;48.546;9.896;2022-08-11T09:06:55;4.90;;;1.10;;
21114;SDS011;10715;48.546;9.896;2022-08-11T09:09:23;1.20;;;1.03;;
21114;SDS011;10715;48.546;9.896;2022-08-11T09:11:50;4.53;;;1.00;;
21114;SDS011;10715;48.546;9.896;2022-08-11T09:16:45;1.83;;;1.33;;
21114;SDS011;10715;48.546;9.896;2022-08-11T09:19:13;4.90;;;1.33;;
21114;SDS011;10715;48.546;9.896;2022-08-11T09:21:42;1.30;;;1.20;;
21114;SDS011;10715;48.546;9.896;2022-08-11T09:24:30;1.27;;;1.17;;
21114;SDS011;10715;48.546;9.896;2022-08-11T09:27:15;2.47;;;1.10;;
21114;SDS011;10715;48.546;9.896;2022-08-11T09:29:42;2.63;;;1.10;;
21114;SDS011;10715;48.546;9.896;2022-08-11T09:32:09;1.40;;;0.93;;
21114;SDS011;10715;48.546;9.896;2022-08-11T09:34:37;2.57;;;1.17;;
21114;SDS011;10715;48.546;9.896;2022-08-11T09:37:03;2.20;;;1.30;;
21114;SDS011;10715;48.546;9.896;2022-08-11T09:39:49;2.93;;;0.90;;
21114;SDS011;10715;48.546;9.896;2022-08-11T09:42:33;4.60;;;1.23;;
21114;SDS011;10715;48.546;9.896;2022-08-11T09:45:19;4.40;;;1.20;;
21114;SDS011;10715;48.546;9.896;2022-08-11T09:47:45;1.87;;;1.30;;
21114;SDS011;10715;48.546;9.896;2022-08-11T09:50:13;2.20;;;1.13;;
21114;SDS011;10715;48.546;9.896;2022-08-11T09:52:41;2.57;;;1.33;;
21114;SDS011;10715;48.546;9.896;2022-08-11T09:55:09;1.53;;;0.90;;
21114;SDS011;10715;48.546;9.896;2022-08-11T09:57:39;1.20;;;0.60;;
21114;SDS011;10715;48.546;9.896;2022-08-11T10:00:29;3.50;;;0.77;;
21114;SDS011;10715;48.546;9.896;2022-08-11T10:02:58;2.23;;;1.10;;
21114;SDS011;10715;48.546;9.896;2022-08-11T10:05:26;1.30;;;0.83;;
21114;SDS011;10715;48.546;9.896;2022-08-11T10:08:13;3.20;;;1.00;;
21114;SDS011;10715;48.546;9.896;2022-08-11T10:10:43;0.90;;;0.60;;
21114;SDS011;10715;48.546;9.896;2022-08-11T10:13:18;1.20;;;0.70;;
21114;SDS011;10715;48.546;9.896;2022-08-11T10:15:49;1.93;;;0.90;;
21114;SDS011;10715;48.546;9.896;2022-08-11T10:18:23;1.00;;;0.70;;
21114;SDS011;10715;48.546;9.896;2022-08-11T10:21:10;1.90;;;0.90;;
21114;SDS011;10715;48.546;9.896;2022-08-11T10:23:39;1.53;;;0.60;;
21114;SDS011;10715;48.546;9.896;2022-08-11T10:26:25;1.00;;;0.70;;
21114;SDS011;10715;48.546;9.896;2022-08-11T10:29:12;1.67;;;0.70;;
21114;SDS011;10715;48.546;9.896;2022-08-11T10:31:57;4.10;;;0.73;;
21114;SDS011;10715;48.546;9.896;2022-08-11T10:34:43;1.73;;;0.97;;
21114;SDS011;10715;48.546;9.896;2022-08-11T10:37:11;7.53;;;0.70;;
21114;SDS011;10715;48.546;9.896;2022-08-11T10:39:38;1.20;;;0.60;;
21114;SDS011;10715;48.546;9.896;2022-08-11T10:42:05;1.63;;;1.13;;
21114;SDS011;10715;48.546;9.896;2022-08-11T10:44:51;1.03;;;0.60;;
21114;SDS011;10715;48.546;9.896;2022-08-11T10:47:19;1.27;;;0.70;;
21114;SDS011;10715;48.546;9.896;2022-08-11T10:50:01;1.27;;;0.60;;
21114;SDS011;10715;48.546;9.896;2022-08-11T10:52:48;2.87;;;0.70;;
21114;SDS011;10715;48.546;9.896;2022-08-11T10:55:34;1.37;;;0.93;;
21114;SDS011;10715;48.546;9.896;2022-08-11T10:58:20;1.03;;;0.67;;
21114;SDS011;10715;48.546;9.896;2022-08-11T11:01:05;0.80;;;0.60;;
21114;SDS011;10715;48.546;9.896;2022-08-11T11:03:34;0.90;;;0.70;;
21114;SDS011;10715;48.546;9.896;2022-08-11T11:08:51;2.50;;;0.80;;
21114;SDS011;10715;48.546;9.896;2022-08-11T11:11:23;1.50;;;0.80;;
21114;SDS011;10715;48.546;9.896;2022-08-11T11:14:15;1.10;;;0.60;;
21114;SDS011;10715;48.546;9.896;2022-08-11T11:17:05;0.90;;;0.70;;
21114;SDS011;10715;48.546;9.896;2022-08-11T11:19:53;2.40;;;0.60;;
21114;SDS011;10715;48.546;9.896;2022-08-11T11:22:23;1.87;;;0.90;;
21114;SDS011;10715;48.546;9.896;2022-08-11T11:33:54;1.10;;;0.60;;
21114;SDS011;10715;48.546;9.896;2022-08-11T11:36:46;0.97;;;0.63;;
21114;SDS011;10715;48.546;9.896;2022-08-11T11:39:18;1.83;;;0.80;;
21114;SDS011;10715;48.546;9.896;2022-08-11T11:41:46;4.13;;;0.80;;
21114;SDS011;10715;48.546;9.896;2022-08-11T11:44:13;1.20;;;0.90;;
21114;SDS011;10715;48.546;9.896;2022-08-11T11:46:39;1.17;;;1.00;;
21114;SDS011;10715;48.546;9.896;2022-08-11T11:49:09;1.40;;;0.93;;
21114;SDS011;10715;48.546;9.896;2022-08-11T11:51:35;1.20;;;1.10;;
21114;SDS011;10715;48.546;9.896;2022-08-11T11:54:02;2.47;;;0.93;;
21114;SDS011;10715;48.546;9.896;2022-08-11T11:56:30;2.83;;;1.10;;
21114;SDS011;10715;48.546;9.896;2022-08-11T11:58:57;1.80;;;1.20;;
21114;SDS011;10715;48.546;9.896;2022-08-11T12:01:41;1.07;;;0.80;;
21114;SDS011;10715;48.546;9.896;2022-08-11T12:04:08;2.03;;;1.40;;
21114;SDS011;10715;48.546;9.896;2022-08-11T12:06:36;1.47;;;1.33;;
21114;SDS011;10715;48.546;9.896;2022-08-11T12:09:02;1.30;;;1.00;;
21114;SDS011;10715;48.546;9.896;2022-08-11T12:11:29;1.07;;;0.90;;
21114;SDS011;10715;48.546;9.896;2022-08-11T12:14:15;4.70;;;1.10;;
21114;SDS011;10715;48.546;9.896;2022-08-11T12:16:44;1.70;;;1.13;;
21114;SDS011;10715;48.546;9.896;2022-08-11T12:19:17;1.27;;;1.10;;
21114;SDS011;10715;48.546;9.896;2022-08-11T12:21:46;2.90;;;1.40;;
21114;SDS011;10715;48.546;9.896;2022-08-11T12:24:32;1.90;;;1.20;;
21114;SDS011;10715;48.546;9.896;2022-08-11T12:27:18;1.10;;;1.00;;
21114;SDS011;10715;48.546;9.896;2022-08-11T12:29:45;1.60;;;1.40;;
21114;SDS011;10715;48.546;9.896;2022-08-11T12:32:16;4.00;;;0.80;;
21114;SDS011;10715;48.546;9.896;2022-08-11T12:34:44;1.10;;;0.90;;
21114;SDS011;10715;48.546;9.896;2022-08-11T12:37:09;1.40;;;0.97;;
21114;SDS011;10715;48.546;9.896;2022-08-11T12:39:38;1.43;;;1.00;;
21114;SDS011;10715;48.546;9.896;2022-08-11T12:42:30;1.93;;;1.07;;
21114;SDS011;10715;48.546;9.896;2022-08-11T12:45:16;5.07;;;1.33;;
21114;SDS011;10715;48.546;9.896;2022-08-11T12:47:53;1.57;;;1.00;;
21114;SDS011;10715;48.546;9.896;2022-08-11T12:51:03;2.40;;;1.03;;
21114;SDS011;10715;48.546;9.896;2022-08-11T12:54:00;1.60;;;1.20;;
21114;SDS011;10715;48.546;9.896;2022-08-11T12:56:36;1.47;;;0.70;;
21114;SDS011;10715;48.546;9.896;2022-08-11T12:59:22;2.20;;;0.80;;
21114;SDS011;10715;48.546;9.896;2022-08-11T13:02:08;1.37;;;0.83;;
21114;SDS011;10715;48.546;9.896;2022-08-11T13:04:57;7.50;;;1.23;;
21114;SDS011;10715;48.546;9.896;2022-08-11T13:07:24;1.20;;;1.10;;
21114;SDS011;10715;48.546;9.896;2022-08-11T13:09:54;1.03;;;0.90;;
21114;SDS011;10715;48.546;9.896;2022-08-11T13:12:22;1.07;;;0.80;;
21114;SDS011;10715;48.546;9.896;2022-08-11T13:15:08;5.90;;;0.93;;
21114;SDS011;10715;48.546;9.896;2022-08-11T13:17:36;2.13;;;1.20;;
21114;SDS011;10715;48.546;9.896;2022-08-11T13:20:04;1.50;;;1.20;;
21114;SDS011;10715;48.546;9.896;2022-08-11T13:22:31;3.23;;;1.20;;
21114;SDS011;10715;48.546;9.896;2022-08-11T13:24:57;1.83;;;0.90;;
21114;SDS011;10715;48.546;9.896;2022-08-11T13:27:23;1.10;;;0.70;;
21114;SDS011;10715;48.546;9.896;2022-08-11T13:29:50;1.33;;;1.23;;
21114;SDS011;10715;48.546;9.896;2022-08-11T13:32:37;2.40;;;0.93;;
21114;SDS011;10715;48.546;9.896;2022-08-11T13:35:05;3.13;;;0.93;;
21114;SDS011;10715;48.546;9.896;2022-08-11T13:37:31;1.20;;;0.97;;
21114;SDS011;10715;48.546;9.896;2022-08-11T13:39:59;1.10;;;0.90;;
21114;SDS011;10715;48.546;9.896;2022-08-11T13:42:26;1.50;;;1.20;;
21114;SDS011;10715;48.546;9.896;2022-08-11T13:44:52;4.30;;;1.30;;
21114;SDS011;10715;48.546;9.896;2022-08-11T13:47:20;1.20;;;1.00;;
21114;SDS011;10715;48.546;9.896;2022-08-11T13:49:49;1.30;;;0.90;;
21114;SDS011;10715;48.546;9.896;2022-08-11T13:52:15;1.20;;;0.90;;
21114;SDS011;10715;48.546;9.896;2022-08-11T13:54:44;2.27;;;1.40;;
21114;SDS011;10715;48.546;9.896;2022-08-11T13:57:12;1.60;;;0.93;;
21114;SDS011;10715;48.546;9.896;2022-08-11T13:59:43;1.00;;;0.80;;
21114;SDS011;10715;48.546;9.896;2022-08-11T14:02:15;1.50;;;1.10;;
21114;SDS011;10715;48.546;9.896;2022-08-11T14:04:47;2.50;;;0.90;;
21114;SDS011;10715;48.546;9.896;2022-08-11T14:07:15;1.10;;;0.97;;
21114;SDS011;10715;48.546;9.896;2022-08-11T14:09:46;4.40;;;0.90;;
21114;SDS011;10715;48.546;9.896;2022-08-11T14:12:21;1.10;;;1.00;;
21114;SDS011;10715;48.546;9.896;2022-08-11T14:15:15;1.90;;;0.63;;
21114;SDS011;10715;48.546;9.896;2022-08-11T14:17:45;1.00;;;0.83;;
21114;SDS011;10715;48.546;9.896;2022-08-11T14:20:15;1.00;;;0.73;;
21114;SDS011;10715;48.546;9.896;2022-08-11T14:22:44;2.10;;;0.80;;
21114;SDS011;10715;48.546;9.896;2022-08-11T14:25:12;3.10;;;0.90;;
21114;SDS011;10715;48.546;9.896;2022-08-11T14:27:40;3.67;;;0.93;;
21114;SDS011;10715;48.546;9.896;2022-08-11T14:30:08;2.37;;;1.00;;
21114;SDS011;10715;48.546;9.896;2022-08-11T14:32:54;1.30;;;1.00;;
21114;SDS011;10715;48.546;9.896;2022-08-11T14:35:21;2.40;;;0.97;;
21114;SDS011;10715;48.546;9.896;2022-08-11T14:37:48;1.07;;;0.90;;
21114;SDS011;10715;48.546;9.896;2022-08-11T14:40:14;0.90;;;0.80;;
21114;SDS011;10715;48.546;9.896;2022-08-11T14:43:00;2.13;;;1.27;;
21114;SDS011;10715;48.546;9.896;2022-08-11T14:45:44;1.50;;;0.70;;
21114;SDS011;10715;48.546;9.896;2022-08-11T14:48:29;1.20;;;1.10;;
21114;SDS011;10715;48.546;9.896;2022-08-11T14:50:55;1.00;;;0.90;;
21114;SDS011;10715;48.546;9.896;2022-08-11T14:53:22;1.27;;;1.10;;
21114;SDS011;10715;48.546;9.896;2022-08-11T14:55:48;1.10;;;0.80;;
21114;SDS011;10715;48.546;9.896;2022-08-11T14:58:33;1.40;;;0.90;;
21114;SDS011;10715;48.546;9.896;2022-08-11T15:01:00;2.07;;;0.83;;
21114;SDS011;10715;48.546;9.896;2022-08-11T15:03:28;1.73;;;1.00;;
21114;SDS011;10715;48.546;9.896;2022-08-11T15:05:58;2.10;;;0.83;;
21114;SDS011;10715;48.546;9.896;2022-08-11T15:08:29;2.50;;;0.90;;
21114;SDS011;10715;48.546;9.896;2022-08-11T15:11:16;0.90;;;0.70;;
21114;SDS011;10715;48.546;9.896;2022-08-11T15:14:05;1.03;;;0.90;;
21114;SDS011;10715;48.546;9.896;2022-08-11T15:16:33;1.13;;;0.80;;
21114;SDS011;10715;48.546;9.896;2022-08-11T15:19:20;1.10;;;0.90;;
21114;SDS011;10715;48.546;9.896;2022-08-11T15:21:48;3.73;;;1.00;;
21114;SDS011;10715;48.546;9.896;2022-08-11T15:24:32;1.43;;;0.70;;
21114;SDS011;10715;48.546;9.896;2022-08-11T15:27:00;1.40;;;1.07;;
21114;SDS011;10715;48.546;9.896;2022-08-11T15:29:51;3.33;;;0.90;;
21114;SDS011;10715;48.546;9.896;2022-08-11T15:32:36;7.87;;;0.90;;
21114;SDS011;10715;48.546;9.896;2022-08-11T15:35:21;1.03;;;0.77;;
21114;SDS011;10715;48.546;9.896;2022-08-11T15:38:21;1.47;;;0.80;;
21114;SDS011;10715;48.546;9.896;2022-08-11T15:40:49;1.23;;;0.63;;
21114;SDS011;10715;48.546;9.896;2022-08-11T15:43:37;2.47;;;0.90;;
21114;SDS011;10715;48.546;9.896;2022-08-11T15:49:13;7.30;;;0.90;;
21114;SDS011;10715;48.546;9.896;2022-08-11T15:51:54;9.53;;;0.90;;
21114;SDS011;10715;48.546;9.896;2022-08-11T15:54:37;0.90;;;0.70;;
21114;SDS011;10715;48.546;9.896;2022-08-11T15:57:05;5.90;;;0.80;;
21114;SDS011;10715;48.546;9.896;2022-08-11T15:59:34;3.77;;;0.67;;
21114;SDS011;10715;48.546;9.896;2022-08-11T16:02:20;3.20;;;0.60;;
21114;SDS011;10715;48.546;9.896;2022-08-11T16:05:01;2.13;;;0.60;;
21114;SDS011;10715;48.546;9.896;2022-08-11T16:07:31;1.10;;;0.90;;
21114;SDS011;10715;48.546;9.896;2022-08-11T16:10:12;1.10;;;0.73;;
21114;SDS011;10715;48.546;9.896;2022-08-11T16:12:52;3.13;;;0.70;;
21114;SDS011;10715;48.546;9.896;2022-08-11T16:15:39;0.97;;;0.77;;
21114;SDS011;10715;48.546;9.896;2022-08-11T16:18:30;1.33;;;0.70;;
21114;SDS011;10715;48.546;9.896;2022-08-11T16:21:09;5.13;;;0.87;;
21114;SDS011;10715;48.546;9.896;2022-08-11T16:23:40;1.07;;;0.70;;
21114;SDS011;10715;48.546;9.896;2022-08-11T16:26:08;1.20;;;1.00;;
21114;SDS011;10715;48.546;9.896;2022-08-11T16:28:36;1.10;;;0.70;;
21114;SDS011;10715;48.546;9.896;2022-08-11T16:31:04;3.90;;;0.80;;
21114;SDS011;10715;48.546;9.896;2022-08-11T16:33:36;3.37;;;0.60;;
21114;SDS011;10715;48.546;9.896;2022-08-11T16:36:05;1.00;;;0.90;;
21114;SDS011;10715;48.546;9.896;2022-08-11T16:38:52;1.13;;;0.90;;
21114;SDS011;10715;48.546;9.896;2022-08-11T16:41:23;1.43;;;0.80;;
21114;SDS011;10715;48.546;9.896;2022-08-11T16:44:13;5.10;;;1.13;;
21114;SDS011;10715;48.546;9.896;2022-08-11T16:46:59;1.40;;;0.80;;
21114;SDS011;10715;48.546;9.896;2022-08-11T16:49:29;3.60;;;1.00;;
21114;SDS011;10715;48.546;9.896;2022-08-11T16:51:57;2.17;;;1.10;;
21114;SDS011;10715;48.546;9.896;2022-08-11T16:54:32;6.00;;;1.00;;
21114;SDS011;10715;48.546;9.896;2022-08-11T16:56:59;1.33;;;0.97;;
21114;SDS011;10715;48.546;9.896;2022-08-11T16:59:47;2.17;;;0.90;;
21114;SDS011;10715;48.546;9.896;2022-08-11T17:02:15;1.67;;;0.80;;
21114;SDS011;10715;48.546;9.896;2022-08-11T17:05:01;1.50;;;0.90;;
21114;SDS011;10715;48.546;9.896;2022-08-11T17:07:50;2.37;;;0.67;;
21114;SDS011;10715;48.546;9.896;2022-08-11T17:10:53;1.10;;;0.67;;
21114;SDS011;10715;48.546;9.896;2022-08-11T17:13:56;2.10;;;0.70;;
21114;SDS011;10715;48.546;9.896;2022-08-11T17:16:34;1.00;;;0.60;;
21114;SDS011;10715;48.546;9.896;2022-08-11T17:19:10;4.43;;;1.33;;
21114;SDS011;10715;48.546;9.896;2022-08-11T17:21:42;1.47;;;1.23;;
21114;SDS011;10715;48.546;9.896;2022-08-11T17:24:33;3.17;;;1.10;;
21114;SDS011;10715;48.546;9.896;2022-08-11T17:27:02;1.27;;;0.90;;
21114;SDS011;10715;48.546;9.896;2022-08-11T17:32:18;2.43;;;1.00;;
21114;SDS011;10715;48.546;9.896;2022-08-11T17:35:08;1.30;;;0.60;;
21114;SDS011;10715;48.546;9.896;2022-08-11T17:37:56;1.00;;;0.63;;
21114;SDS011;10715;48.546;9.896;2022-08-11T17:40:30;1.73;;;1.63;;
21114;SDS011;10715;48.546;9.896;2022-08-11T17:43:01;1.60;;;1.13;;
21114;SDS011;10715;48.546;9.896;2022-08-11T17:45:47;1.00;;;0.90;;
21114;SDS011;10715;48.546;9.896;2022-08-11T17:48:32;2.17;;;0.97;;
21114;SDS011;10715;48.546;9.896;2022-08-11T17:51:03;2.40;;;0.97;;
21114;SDS011;10715;48.546;9.896;2022-08-11T17:53:39;2.03;;;0.90;;
21114;SDS011;10715;48.546;9.896;2022-08-11T17:56:26;0.87;;;0.77;;
21114;SDS011;10715;48.546;9.896;2022-08-11T17:59:12;6.63;;;0.90;;
21114;SDS011;10715;48.546;9.896;2022-08-11T18:01:59;1.00;;;0.70;;
21114;SDS011;10715;48.546;9.896;2022-08-11T18:04:48;1.10;;;0.97;;
21114;SDS011;10715;48.546;9.896;2022-08-11T18:07:16;1.03;;;0.70;;
21114;SDS011;10715;48.546;9.896;2022-08-11T18:10:03;1.90;;;0.80;;
21114;SDS011;10715;48.546;9.896;2022-08-11T18:12:50;5.97;;;0.90;;
21114;SDS011;10715;48.546;9.896;2022-08-11T18:15:39;1.17;;;0.70;;
21114;SDS011;10715;48.546;9.896;2022-08-11T18:18:26;1.23;;;0.73;;
21114;SDS011;10715;48.546;9.896;2022-08-11T18:21:14;4.40;;;1.20;;
21114;SDS011;10715;48.546;9.896;2022-08-11T18:24:02;1.10;;;0.80;;
21114;SDS011;10715;48.546;9.896;2022-08-11T18:26:50;1.03;;;0.60;;
21114;SDS011;10715;48.546;9.896;2022-08-11T18:29:38;2.33;;;1.00;;
21114;SDS011;10715;48.546;9.896;2022-08-11T18:32:25;1.17;;;0.90;;
21114;SDS011;10715;48.546;9.896;2022-08-11T18:35:12;2.17;;;1.50;;
21114;SDS011;10715;48.546;9.896;2022-08-11T18:37:57;1.10;;;0.80;;
21114;SDS011;10715;48.546;9.896;2022-08-11T18:40:45;2.17;;;1.23;;
21114;SDS011;10715;48.546;9.896;2022-08-11T18:43:31;1.97;;;0.90;;
21114;SDS011;10715;48.546;9.896;2022-08-11T18:46:17;1.30;;;0.67;;
21114;SDS011;10715;48.546;9.896;2022-08-11T18:49:09;1.30;;;0.77;;
21114;SDS011;10715;48.546;9.896;2022-08-11T18:52:00;2.53;;;1.20;;
21114;SDS011;10715;48.546;9.896;2022-08-11T18:54:45;1.73;;;0.90;;
21114;SDS011;10715;48.546;9.896;2022-08-11T18:57:31;1.37;;;0.90;;
21114;SDS011;10715;48.546;9.896;2022-08-11T19:00:20;4.03;;;1.30;;
21114;SDS011;10715;48.546;9.896;2022-08-11T19:03:06;4.13;;;1.10;;
21114;SDS011;10715;48.546;9.896;2022-08-11T19:05:52;2.63;;;0.90;;
21114;SDS011;10715;48.546;9.896;2022-08-11T19:08:39;2.73;;;1.27;;
21114;SDS011;10715;48.546;9.896;2022-08-11T19:11:29;5.53;;;1.00;;
21114;SDS011;10715;48.546;9.896;2022-08-11T19:14:16;4.80;;;1.20;;
21114;SDS011;10715;48.546;9.896;2022-08-11T19:17:01;3.90;;;1.03;;
21114;SDS011;10715;48.546;9.896;2022-08-11T19:19:48;4.70;;;1.97;;
21114;SDS011;10715;48.546;9.896;2022-08-11T19:22:34;3.63;;;1.20;;
21114;SDS011;10715;48.546;9.896;2022-08-11T19:25:19;2.00;;;1.30;;
21114;SDS011;10715;48.546;9.896;2022-08-11T19:28:05;1.10;;;0.90;;
21114;SDS011;10715;48.546;9.896;2022-08-11T19:30:50;2.40;;;1.37;;